createdAt,value
2018-06-16T00:00:34.921Z,0.00
2018-06-16T00:01:34.943Z,0.00
2018-06-16T00:02:34.972Z,0.00
2018-06-16T00:03:34.988Z,0.00
2018-06-16T00:04:35.002Z,0.00
2018-06-16T00:05:35.059Z,0.00
2018-06-16T00:06:35.050Z,0.00
2018-06-16T00:07:35.063Z,0.00
2018-06-16T00:08:35.083Z,0.00
2018-06-16T00:09:35.107Z,0.00
2018-06-16T00:10:35.121Z,0.00
2018-06-16T00:11:35.148Z,0.00
2018-06-16T00:12:35.164Z,0.00
2018-06-16T00:13:35.190Z,0.00
2018-06-16T00:14:35.251Z,0.00
2018-06-16T00:15:35.234Z,0.00
2018-06-16T00:16:35.249Z,0.00
2018-06-16T00:17:35.270Z,0.00
2018-06-16T00:18:35.295Z,0.00
2018-06-16T00:19:35.316Z,0.00
2018-06-16T00:20:35.333Z,0.00
2018-06-16T00:21:35.352Z,0.00
2018-06-16T00:22:35.378Z,0.00
2018-06-16T00:23:35.392Z,0.00
2018-06-16T00:24:35.413Z,0.00
2018-06-16T00:25:35.434Z,0.00
2018-06-16T00:26:35.455Z,0.00
2018-06-16T00:27:35.472Z,0.00
2018-06-16T00:28:35.490Z,0.00
2018-06-16T00:29:35.513Z,0.00
2018-06-16T00:30:35.537Z,0.00
2018-06-16T00:31:35.564Z,0.00
2018-06-16T00:32:35.576Z,0.00
2018-06-16T00:33:35.604Z,0.00
2018-06-16T00:34:35.613Z,0.00
2018-06-16T00:35:35.642Z,0.00
2018-06-16T00:36:35.656Z,0.00
2018-06-16T00:37:35.680Z,0.00
2018-06-16T00:38:35.697Z,0.00
2018-06-16T00:39:35.715Z,0.00
2018-06-16T00:40:35.740Z,0.00
2018-06-16T00:41:35.761Z,0.00
2018-06-16T00:42:35.778Z,0.00
2018-06-16T00:43:35.797Z,0.00
2018-06-16T00:44:35.819Z,0.00
2018-06-16T00:45:35.846Z,0.00
2018-06-16T00:46:35.859Z,0.00
2018-06-16T00:47:35.880Z,0.00
2018-06-16T00:48:35.928Z,0.00
2018-06-16T00:49:35.925Z,0.00
2018-06-16T00:50:35.951Z,0.00
2018-06-16T00:51:35.965Z,0.00
2018-06-16T00:52:35.981Z,0.00
2018-06-16T00:53:36.010Z,0.00
2018-06-16T00:54:36.030Z,0.00
2018-06-16T00:55:36.041Z,0.00
2018-06-16T00:56:36.064Z,0.00
2018-06-16T00:57:36.093Z,0.00
2018-06-16T00:58:36.105Z,0.00
2018-06-16T00:59:36.125Z,0.00
2018-06-16T01:00:36.143Z,0.00
2018-06-16T01:01:36.175Z,0.00
2018-06-16T01:02:36.183Z,0.00
2018-06-16T01:03:36.204Z,0.00
2018-06-16T01:04:36.229Z,0.00
2018-06-16T01:05:36.253Z,0.00
2018-06-16T01:06:36.269Z,0.00
2018-06-16T01:07:36.298Z,0.00
2018-06-16T01:08:36.311Z,0.00
2018-06-16T01:09:36.329Z,0.00
2018-06-16T01:10:36.358Z,0.00
2018-06-16T01:11:36.377Z,0.00
2018-06-16T01:12:36.394Z,0.00
2018-06-16T01:13:36.412Z,0.00
2018-06-16T01:14:36.428Z,0.00
2018-06-16T01:15:36.463Z,0.00
2018-06-16T01:16:36.472Z,0.00
2018-06-16T01:17:36.493Z,0.00
2018-06-16T01:18:36.534Z,0.00
2018-06-16T01:19:36.536Z,0.00
2018-06-16T01:20:36.553Z,0.00
2018-06-16T01:21:36.584Z,0.00
2018-06-16T01:22:36.617Z,0.00
2018-06-16T01:23:36.636Z,0.00
2018-06-16T01:24:36.637Z,0.00
2018-06-16T01:25:36.655Z,0.00
2018-06-16T01:26:36.683Z,0.00
2018-06-16T01:27:36.698Z,0.00
2018-06-16T01:28:36.720Z,0.00
2018-06-16T01:29:36.744Z,0.00
2018-06-16T01:30:36.764Z,0.00
2018-06-16T01:31:36.777Z,0.00
2018-06-16T01:32:36.804Z,0.00
2018-06-16T01:33:36.820Z,0.00
2018-06-16T01:34:36.845Z,0.00
2018-06-16T01:35:36.863Z,0.00
2018-06-16T01:36:36.890Z,0.00
2018-06-16T01:37:36.906Z,0.00
2018-06-16T01:38:36.922Z,0.00
2018-06-16T01:39:36.946Z,0.00
2018-06-16T01:40:36.964Z,0.00
2018-06-16T01:41:36.984Z,0.00
2018-06-16T01:42:37.004Z,0.00
2018-06-16T01:43:37.035Z,0.00
2018-06-16T01:44:37.049Z,0.00
2018-06-16T01:45:37.070Z,0.00
2018-06-16T01:46:37.095Z,0.00
2018-06-16T01:47:37.106Z,0.00
2018-06-16T01:48:37.129Z,0.00
2018-06-16T01:49:37.149Z,0.00
2018-06-16T01:50:37.188Z,0.00
2018-06-16T01:51:37.188Z,0.00
2018-06-16T01:52:37.207Z,0.00
2018-06-16T01:53:37.230Z,0.00
2018-06-16T01:54:37.248Z,0.00
2018-06-16T01:55:37.268Z,0.00
2018-06-16T01:56:37.294Z,0.00
2018-06-16T01:57:37.325Z,0.00
2018-06-16T01:58:37.337Z,0.00
2018-06-16T01:59:37.359Z,0.00
2018-06-16T02:00:37.371Z,0.00
2018-06-16T02:01:37.392Z,0.00
2018-06-16T02:02:37.417Z,0.00
2018-06-16T02:03:37.439Z,0.00
2018-06-16T02:04:37.456Z,0.00
2018-06-16T02:05:37.473Z,0.00
2018-06-16T02:06:37.497Z,0.00
2018-06-16T02:07:37.521Z,0.00
2018-06-16T02:08:37.539Z,0.00
2018-06-16T02:09:37.558Z,0.00
2018-06-16T02:10:37.578Z,0.00
2018-06-16T02:11:37.598Z,0.00
2018-06-16T02:12:37.619Z,0.00
2018-06-16T02:13:37.641Z,0.00
2018-06-16T02:14:37.658Z,0.00
2018-06-16T02:15:37.683Z,0.00
2018-06-16T02:16:37.704Z,4.00
2018-06-16T02:17:37.721Z,4.00
2018-06-16T02:18:37.751Z,4.00
2018-06-16T02:19:37.760Z,4.00
2018-06-16T02:20:37.780Z,4.00
2018-06-16T02:21:37.805Z,4.00
2018-06-16T02:22:37.826Z,4.00
2018-06-16T02:23:37.843Z,4.00
2018-06-16T02:24:37.865Z,4.00
2018-06-16T02:25:37.886Z,0.00
2018-06-16T02:26:37.907Z,0.00
2018-06-16T02:27:37.923Z,0.00
2018-06-16T02:28:37.955Z,4.00
2018-06-16T02:29:37.984Z,4.00
2018-06-16T02:30:37.991Z,4.00
2018-06-16T02:31:38.011Z,4.00
2018-06-16T02:32:38.033Z,4.00
2018-06-16T02:33:38.055Z,4.00
2018-06-16T02:34:38.076Z,8.00
2018-06-16T02:35:38.093Z,8.00
2018-06-16T02:36:38.110Z,8.00
2018-06-16T02:37:38.135Z,8.00
2018-06-16T02:38:38.152Z,8.00
2018-06-16T02:39:38.181Z,12.00
2018-06-16T02:40:38.197Z,12.00
2018-06-16T02:41:38.256Z,12.00
2018-06-16T02:42:38.234Z,12.00
2018-06-16T02:43:38.262Z,16.00
2018-06-16T02:44:38.281Z,16.00
2018-06-16T02:45:38.297Z,16.00
2018-06-16T02:46:38.317Z,20.00
2018-06-16T02:47:38.345Z,20.00
2018-06-16T02:48:38.362Z,24.00
2018-06-16T02:49:38.381Z,24.00
2018-06-16T02:50:38.402Z,28.00
2018-06-16T02:51:38.492Z,28.00
2018-06-16T02:52:38.441Z,32.00
2018-06-16T02:53:38.469Z,40.00
2018-06-16T02:54:38.487Z,40.00
2018-06-16T02:55:38.510Z,44.00
2018-06-16T02:56:38.524Z,48.00
2018-06-16T02:57:38.551Z,52.00
2018-06-16T02:58:38.565Z,60.00
2018-06-16T02:59:38.590Z,64.00
2018-06-16T03:00:38.610Z,68.00
2018-06-16T03:01:38.628Z,76.00
2018-06-16T03:02:38.652Z,80.00
2018-06-16T03:03:38.673Z,84.00
2018-06-16T03:04:38.689Z,92.00
2018-06-16T03:05:38.715Z,100.00
2018-06-16T03:06:38.738Z,108.00
2018-06-16T03:07:38.752Z,116.00
2018-06-16T03:08:38.771Z,128.00
2018-06-16T03:09:38.792Z,136.00
2018-06-16T03:10:38.825Z,144.00
2018-06-16T03:11:38.834Z,156.00
2018-06-16T03:12:38.854Z,168.00
2018-06-16T03:13:38.879Z,180.00
2018-06-16T03:14:38.894Z,192.00
2018-06-16T03:15:38.916Z,204.00
2018-06-16T03:16:38.939Z,216.00
2018-06-16T03:17:38.961Z,232.00
2018-06-16T03:18:38.983Z,252.00
2018-06-16T03:19:38.995Z,272.00
2018-06-16T03:20:39.026Z,288.00
2018-06-16T03:21:39.040Z,308.00
2018-06-16T03:22:39.059Z,332.00
2018-06-16T03:23:39.080Z,352.00
2018-06-16T03:24:39.117Z,384.00
2018-06-16T03:25:39.123Z,412.00
2018-06-16T03:26:39.156Z,448.00
2018-06-16T03:27:39.168Z,476.00
2018-06-16T03:28:39.187Z,516.00
2018-06-16T03:29:39.208Z,556.00
2018-06-16T03:30:39.248Z,596.00
2018-06-16T03:31:39.252Z,636.00
2018-06-16T03:32:39.266Z,672.00
2018-06-16T03:33:39.293Z,716.00
2018-06-16T03:34:39.317Z,764.00
2018-06-16T03:35:39.332Z,800.00
2018-06-16T03:36:39.356Z,836.00
2018-06-16T03:37:39.369Z,888.00
2018-06-16T03:38:39.398Z,948.00
2018-06-16T03:39:39.411Z,1016.00
2018-06-16T03:40:39.438Z,1072.00
2018-06-16T03:41:39.454Z,1124.00
2018-06-16T03:42:39.486Z,1148.00
2018-06-16T03:43:39.496Z,1164.00
2018-06-16T03:44:39.533Z,1188.00
2018-06-16T03:45:39.543Z,1220.00
2018-06-16T03:46:39.560Z,1260.00
2018-06-16T03:47:39.576Z,1300.00
2018-06-16T03:48:39.603Z,1332.00
2018-06-16T03:49:39.635Z,1396.00
2018-06-16T03:50:39.645Z,1488.00
2018-06-16T03:51:39.665Z,1588.00
2018-06-16T03:52:39.688Z,1680.00
2018-06-16T03:53:39.703Z,1776.00
2018-06-16T03:54:39.731Z,1876.00
2018-06-16T03:55:39.749Z,2000.00
2018-06-16T03:56:39.766Z,2100.00
2018-06-16T03:57:39.799Z,2160.00
2018-06-16T03:58:39.813Z,2272.00
2018-06-16T03:59:39.833Z,2596.00
2018-06-16T04:00:39.851Z,2928.00
2018-06-16T04:01:39.875Z,3100.00
2018-06-16T04:02:39.894Z,3208.00
2018-06-16T04:03:39.915Z,3308.00
2018-06-16T04:04:39.939Z,3384.00
2018-06-16T04:05:39.950Z,3428.00
2018-06-16T04:06:39.984Z,3600.00
2018-06-16T04:07:39.999Z,3960.00
2018-06-16T04:08:40.017Z,4356.00
2018-06-16T04:09:40.039Z,4692.00
2018-06-16T04:10:40.071Z,4912.00
2018-06-16T04:11:40.115Z,5044.00
2018-06-16T04:12:40.151Z,5092.00
2018-06-16T04:13:40.140Z,5160.00
2018-06-16T04:14:40.161Z,5216.00
2018-06-16T04:15:40.167Z,5196.00
2018-06-16T04:16:40.186Z,5220.00
2018-06-16T04:17:40.224Z,5292.00
2018-06-16T04:18:40.227Z,5364.00
2018-06-16T04:19:40.251Z,5472.00
2018-06-16T04:20:40.305Z,5504.00
2018-06-16T04:21:40.312Z,5508.00
2018-06-16T04:22:40.325Z,5496.00
2018-06-16T04:23:40.347Z,5504.00
2018-06-16T04:24:40.359Z,5568.00
2018-06-16T04:25:40.388Z,5640.00
2018-06-16T04:26:40.402Z,5716.00
2018-06-16T04:27:40.464Z,5776.00
2018-06-16T04:28:40.481Z,5844.00
2018-06-16T04:29:40.464Z,5936.00
2018-06-16T04:30:40.500Z,6060.00
2018-06-16T04:31:40.600Z,6176.00
2018-06-16T04:32:40.528Z,6304.00
2018-06-16T04:33:40.568Z,6424.00
2018-06-16T04:34:40.634Z,6556.00
2018-06-16T04:35:40.596Z,6716.00
2018-06-16T04:36:40.617Z,6864.00
2018-06-16T04:37:40.633Z,6968.00
2018-06-16T04:38:40.663Z,6996.00
2018-06-16T04:39:40.676Z,7004.00
2018-06-16T04:40:40.706Z,7036.00
2018-06-16T04:41:40.728Z,7080.00
2018-06-16T04:42:40.742Z,7116.00
2018-06-16T04:43:40.803Z,7164.00
2018-06-16T04:44:40.790Z,7244.00
2018-06-16T04:45:40.861Z,7340.00
2018-06-16T04:46:40.841Z,7440.00
2018-06-16T04:47:40.853Z,7536.00
2018-06-16T04:48:40.871Z,7644.00
2018-06-16T04:49:40.904Z,7784.00
2018-06-16T04:50:40.931Z,7964.00
2018-06-16T04:51:40.943Z,8188.00
2018-06-16T04:52:40.971Z,8524.00
2018-06-16T04:53:41.005Z,9032.00
2018-06-16T04:54:41.007Z,9232.00
2018-06-16T04:55:41.045Z,9588.00
2018-06-16T04:56:41.065Z,9936.00
2018-06-16T04:57:41.074Z,10364.00
2018-06-16T04:58:41.100Z,10584.00
2018-06-16T04:59:41.116Z,11484.00
2018-06-16T05:00:41.141Z,10676.00
2018-06-16T05:01:41.164Z,10480.00
2018-06-16T05:02:41.183Z,10740.00
2018-06-16T05:03:41.203Z,11252.00
2018-06-16T05:04:41.228Z,11684.00
2018-06-16T05:05:41.255Z,13256.00
2018-06-16T05:06:41.277Z,12060.00
2018-06-16T05:07:41.293Z,11680.00
2018-06-16T05:08:41.355Z,11632.00
2018-06-16T05:09:41.343Z,11836.00
2018-06-16T05:10:41.362Z,12824.00
2018-06-16T05:11:41.391Z,12372.00
2018-06-16T05:12:41.410Z,12920.00
2018-06-16T05:13:41.433Z,12752.00
2018-06-16T05:14:41.452Z,12516.00
2018-06-16T05:15:41.480Z,12856.00
2018-06-16T05:16:41.595Z,13664.00
2018-06-16T05:17:41.525Z,12564.00
2018-06-16T05:18:41.558Z,12528.00
2018-06-16T05:19:41.569Z,12596.00
2018-06-16T05:20:41.585Z,12832.00
2018-06-16T05:21:41.616Z,13208.00
2018-06-16T05:22:41.630Z,13680.00
2018-06-16T05:23:41.662Z,14676.00
2018-06-16T05:24:41.677Z,15172.00
2018-06-16T05:25:41.735Z,26560.00
2018-06-16T05:26:41.725Z,29664.00
2018-06-16T05:27:41.749Z,28352.00
2018-06-16T05:28:41.817Z,28096.00
2018-06-16T05:29:41.793Z,28576.00
2018-06-16T05:30:41.821Z,26304.00
2018-06-16T05:31:41.855Z,23488.00
2018-06-16T05:32:41.863Z,30784.00
2018-06-16T05:33:41.893Z,23360.00
2018-06-16T05:34:41.924Z,23424.00
2018-06-16T05:35:41.940Z,19808.00
2018-06-16T05:36:41.958Z,17664.00
2018-06-16T05:37:41.989Z,17632.00
2018-06-16T05:38:42.012Z,17984.00
2018-06-16T05:39:42.035Z,18944.00
2018-06-16T05:40:42.066Z,20704.00
2018-06-16T05:41:42.093Z,26848.00
2018-06-16T05:42:42.107Z,35168.00
2018-06-16T05:43:42.137Z,38688.00
2018-06-16T05:44:42.154Z,43936.00
2018-06-16T05:45:42.182Z,44288.00
2018-06-16T05:46:42.207Z,45248.00
2018-06-16T05:47:42.224Z,44480.00
2018-06-16T05:48:42.299Z,43424.00
2018-06-16T05:49:42.279Z,39584.00
2018-06-16T05:50:42.323Z,38688.00
2018-06-16T05:51:42.335Z,39392.00
2018-06-16T05:52:42.355Z,37312.00
2018-06-16T05:53:42.374Z,39712.00
2018-06-16T05:54:42.417Z,41216.00
2018-06-16T05:55:42.431Z,40480.00
2018-06-16T05:56:42.462Z,40352.00
2018-06-16T05:57:42.490Z,39968.00
2018-06-16T05:58:42.511Z,40768.00
2018-06-16T05:59:42.538Z,43936.00
2018-06-16T06:00:42.564Z,39392.00
2018-06-16T06:01:42.593Z,48544.00
2018-06-16T06:02:42.619Z,50176.00
2018-06-16T06:03:42.646Z,52800.00
2018-06-16T06:04:42.669Z,47232.00
2018-06-16T06:05:42.697Z,45472.00
2018-06-16T06:06:42.724Z,46304.00
2018-06-16T06:07:42.756Z,42944.00
2018-06-16T06:08:42.776Z,42560.00
2018-06-16T06:09:42.816Z,40448.00
2018-06-16T06:10:42.835Z,39104.00
2018-06-16T06:11:42.865Z,37408.00
2018-06-16T06:12:42.938Z,37792.00
2018-06-16T06:13:42.922Z,37760.00
2018-06-16T06:14:42.946Z,36896.00
2018-06-16T06:15:43.025Z,38208.00
2018-06-16T06:16:43.004Z,38752.00
2018-06-16T06:17:43.032Z,37664.00
2018-06-16T06:18:43.062Z,38592.00
2018-06-16T06:19:43.097Z,40416.00
2018-06-16T06:20:43.127Z,37888.00
2018-06-16T06:21:43.149Z,36224.00
2018-06-16T06:22:43.181Z,33952.00
2018-06-16T06:23:43.205Z,34272.00
2018-06-16T06:24:43.235Z,38880.00
2018-06-16T06:25:43.278Z,44960.00
2018-06-16T06:26:43.288Z,53888.00
2018-06-16T06:27:43.318Z,70496.00
2018-06-16T06:28:43.348Z,74688.00
2018-06-16T06:29:43.382Z,66880.00
2018-06-16T06:30:43.411Z,56864.00
2018-06-16T06:31:43.435Z,55456.00
2018-06-16T06:32:43.464Z,57728.00
2018-06-16T06:33:43.491Z,57408.00
2018-06-16T06:34:43.523Z,56384.00
2018-06-16T06:35:43.553Z,52672.00
2018-06-16T06:36:43.581Z,52096.00
2018-06-16T06:37:43.613Z,56896.00
2018-06-16T06:38:43.634Z,53344.00
2018-06-16T06:39:43.668Z,56672.00
2018-06-16T06:40:43.692Z,51744.00
2018-06-16T06:41:43.719Z,48480.00
2018-06-16T06:42:43.748Z,47616.00
2018-06-16T06:43:43.782Z,48800.00
2018-06-16T06:44:43.812Z,47168.00
2018-06-16T06:45:43.836Z,49344.00
2018-06-16T06:46:43.884Z,45440.00
2018-06-16T06:47:43.898Z,48160.00
2018-06-16T06:48:43.932Z,47776.00
2018-06-16T06:49:43.962Z,60480.00
2018-06-16T06:50:43.982Z,64128.00
2018-06-16T06:51:44.057Z,63360.00
2018-06-16T06:52:44.038Z,61696.00
2018-06-16T06:53:44.078Z,61600.00
2018-06-16T06:54:44.103Z,59648.00
2018-06-16T06:55:44.127Z,60224.00
2018-06-16T06:56:44.146Z,57888.00
2018-06-16T06:57:44.190Z,63968.00
2018-06-16T06:58:44.214Z,62048.00
2018-06-16T06:59:44.240Z,60832.00
2018-06-16T07:00:44.296Z,58976.00
2018-06-16T07:01:44.312Z,53984.00
2018-06-16T07:02:44.323Z,52768.00
2018-06-16T07:03:44.346Z,52864.00
2018-06-16T07:04:44.382Z,49824.00
2018-06-16T07:05:44.405Z,46848.00
2018-06-16T07:06:44.439Z,50560.00
2018-06-16T07:07:44.468Z,55040.00
2018-06-16T07:08:44.488Z,55136.00
2018-06-16T07:09:44.522Z,53920.00
2018-06-16T07:10:44.639Z,60704.00
2018-06-16T07:11:44.586Z,60992.00
2018-06-16T07:12:44.612Z,58720.00
2018-06-16T07:13:44.645Z,53952.00
2018-06-16T07:14:44.674Z,55040.00
2018-06-16T07:15:44.696Z,51616.00
2018-06-16T07:16:44.724Z,52160.00
2018-06-16T07:17:44.751Z,56160.00
2018-06-16T07:18:44.778Z,53920.00
2018-06-16T07:19:44.816Z,58592.00
2018-06-16T07:20:44.840Z,64832.00
2018-06-16T07:21:44.873Z,60224.00
2018-06-16T07:22:44.893Z,61664.00
2018-06-16T07:23:44.922Z,56608.00
2018-06-16T07:24:44.947Z,62688.00
2018-06-16T07:25:44.984Z,65952.00
2018-06-16T07:26:45.009Z,69152.00
2018-06-16T07:27:45.045Z,55392.00
2018-06-16T07:28:45.066Z,64320.00
2018-06-16T07:29:45.095Z,64448.00
2018-06-16T07:30:45.138Z,60960.00
2018-06-16T07:31:45.185Z,54560.00
2018-06-16T07:32:45.191Z,49248.00
2018-06-16T07:33:45.215Z,47520.00
2018-06-16T07:34:45.265Z,47360.00
2018-06-16T07:35:45.276Z,46784.00
2018-06-16T07:36:45.310Z,49472.00
2018-06-16T07:37:45.339Z,53344.00
2018-06-16T07:38:45.367Z,62080.00
2018-06-16T07:39:45.395Z,56800.00
2018-06-16T07:40:45.417Z,67040.00
2018-06-16T07:41:45.464Z,48288.00
2018-06-16T07:42:45.479Z,53216.00
2018-06-16T07:43:45.513Z,49920.00
2018-06-16T07:44:45.533Z,58304.00
2018-06-16T07:45:45.575Z,59296.00
2018-06-16T07:46:45.594Z,59616.00
2018-06-16T07:47:45.620Z,49728.00
2018-06-16T07:48:45.652Z,30688.00
2018-06-16T07:49:45.682Z,29952.00
2018-06-16T07:50:45.705Z,29792.00
2018-06-16T07:51:45.735Z,28608.00
2018-06-16T07:52:45.763Z,29120.00
2018-06-16T07:53:45.882Z,43456.00
2018-06-16T07:54:45.823Z,37248.00
2018-06-16T07:55:45.890Z,40320.00
2018-06-16T07:56:45.988Z,49344.00
2018-06-16T07:57:45.951Z,46304.00
2018-06-16T07:58:45.937Z,48224.00
2018-06-16T07:59:46.074Z,48704.00
2018-06-16T08:00:46.032Z,47008.00
2018-06-16T08:01:46.027Z,52416.00
2018-06-16T08:02:46.169Z,46912.00
2018-06-16T08:03:46.071Z,44672.00
2018-06-16T08:04:46.123Z,48736.00
2018-06-16T08:05:46.143Z,47872.00
2018-06-16T08:06:46.158Z,46400.00
2018-06-16T08:07:46.184Z,40256.00
2018-06-16T08:08:46.213Z,39520.00
2018-06-16T08:09:46.243Z,44576.00
2018-06-16T08:10:46.276Z,48448.00
2018-06-16T08:11:46.301Z,53056.00
2018-06-16T08:12:46.344Z,50496.00
2018-06-16T08:13:46.361Z,46784.00
2018-06-16T08:14:46.381Z,42272.00
2018-06-16T08:15:46.412Z,40576.00
2018-06-16T08:16:46.446Z,49472.00
2018-06-16T08:17:46.867Z,45792.00
2018-06-16T08:18:46.538Z,47968.00
2018-06-16T08:19:46.729Z,39456.00
2018-06-16T08:20:46.551Z,48832.00
2018-06-16T08:21:46.581Z,48512.00
2018-06-16T08:22:46.612Z,47488.00
2018-06-16T08:23:46.638Z,47936.00
2018-06-16T08:24:46.666Z,46080.00
2018-06-16T08:25:46.690Z,47296.00
2018-06-16T08:26:46.723Z,44320.00
2018-06-16T08:27:46.745Z,42176.00
2018-06-16T08:28:46.778Z,39456.00
2018-06-16T08:29:46.806Z,42752.00
2018-06-16T08:30:46.827Z,40448.00
2018-06-16T08:31:46.861Z,41728.00
2018-06-16T08:32:46.891Z,33888.00
2018-06-16T08:33:46.915Z,29440.00
2018-06-16T08:34:46.975Z,28544.00
2018-06-16T08:35:46.964Z,27712.00
2018-06-16T08:36:46.996Z,26624.00
2018-06-16T08:37:47.027Z,25984.00
2018-06-16T08:38:47.059Z,25696.00
2018-06-16T08:39:47.092Z,25632.00
2018-06-16T08:40:47.105Z,25440.00
2018-06-16T08:41:47.133Z,25216.00
2018-06-16T08:42:47.166Z,25312.00
2018-06-16T08:43:47.182Z,25088.00
2018-06-16T08:44:47.210Z,24928.00
2018-06-16T08:45:47.238Z,25024.00
2018-06-16T08:46:47.267Z,25056.00
2018-06-16T08:47:47.318Z,25024.00
2018-06-16T08:48:47.365Z,24992.00
2018-06-16T08:49:47.362Z,25536.00
2018-06-16T08:50:47.371Z,25984.00
2018-06-16T08:51:47.406Z,26656.00
2018-06-16T08:52:47.422Z,27328.00
2018-06-16T08:53:47.458Z,27520.00
2018-06-16T08:54:47.482Z,27776.00
2018-06-16T08:55:47.519Z,27488.00
2018-06-16T08:56:47.542Z,27616.00
2018-06-16T08:57:47.563Z,27456.00
2018-06-16T08:58:47.624Z,26624.00
2018-06-16T08:59:47.617Z,26208.00
2018-06-16T09:00:47.636Z,25856.00
2018-06-16T09:01:47.664Z,25696.00
2018-06-16T09:02:47.689Z,26624.00
2018-06-16T09:03:47.716Z,27008.00
2018-06-16T09:04:47.745Z,26464.00
2018-06-16T09:05:47.769Z,26720.00
2018-06-16T09:06:47.793Z,26656.00
2018-06-16T09:07:47.824Z,25952.00
2018-06-16T09:08:47.874Z,26592.00
2018-06-16T09:09:47.878Z,26720.00
2018-06-16T09:10:47.904Z,26624.00
2018-06-16T09:11:47.930Z,26080.00
2018-06-16T09:12:47.963Z,25856.00
2018-06-16T09:13:47.987Z,26048.00
2018-06-16T09:14:48.007Z,25600.00
2018-06-16T09:15:48.043Z,25792.00
2018-06-16T09:16:48.061Z,26400.00
2018-06-16T09:17:48.084Z,26656.00
2018-06-16T09:18:48.120Z,26496.00
2018-06-16T09:19:48.146Z,26368.00
2018-06-16T09:20:48.164Z,25792.00
2018-06-16T09:21:48.192Z,25312.00
2018-06-16T09:22:48.223Z,25248.00
2018-06-16T09:23:48.244Z,24256.00
2018-06-16T09:24:48.270Z,23296.00
2018-06-16T09:25:48.305Z,23360.00
2018-06-16T09:26:48.325Z,23232.00
2018-06-16T09:27:48.355Z,22720.00
2018-06-16T09:28:48.375Z,22304.00
2018-06-16T09:29:48.402Z,21920.00
2018-06-16T09:30:48.429Z,21920.00
2018-06-16T09:31:48.499Z,21760.00
2018-06-16T09:32:48.479Z,22752.00
2018-06-16T09:33:48.508Z,23744.00
2018-06-16T09:34:48.532Z,23232.00
2018-06-16T09:35:48.564Z,22656.00
2018-06-16T09:36:48.596Z,23072.00
2018-06-16T09:37:48.612Z,22400.00
2018-06-16T09:38:48.642Z,22464.00
2018-06-16T09:39:48.678Z,21024.00
2018-06-16T09:40:48.702Z,19040.00
2018-06-16T09:41:48.719Z,17600.00
2018-06-16T09:42:48.750Z,16960.00
2018-06-16T09:43:48.777Z,16832.00
2018-06-16T09:44:48.815Z,16576.00
2018-06-16T09:45:48.845Z,15576.00
2018-06-16T09:46:48.856Z,14920.00
2018-06-16T09:47:48.877Z,14760.00
2018-06-16T09:48:48.907Z,15384.00
2018-06-16T09:49:48.932Z,16232.00
2018-06-16T09:50:48.957Z,16864.00
2018-06-16T09:51:49.002Z,17024.00
2018-06-16T09:52:49.010Z,17952.00
2018-06-16T09:53:49.037Z,18368.00
2018-06-16T09:54:49.065Z,19392.00
2018-06-16T09:55:49.090Z,20768.00
2018-06-16T09:56:49.110Z,21728.00
2018-06-16T09:57:49.139Z,22464.00
2018-06-16T09:58:49.169Z,22528.00
2018-06-16T09:59:49.187Z,22528.00
2018-06-16T10:00:49.216Z,22752.00
2018-06-16T10:01:49.269Z,22976.00
2018-06-16T10:02:49.268Z,23200.00
2018-06-16T10:03:49.297Z,23296.00
2018-06-16T10:04:49.327Z,23072.00
2018-06-16T10:05:49.349Z,22880.00
2018-06-16T10:06:49.373Z,22560.00
2018-06-16T10:07:49.401Z,22368.00
2018-06-16T10:08:49.432Z,22112.00
2018-06-16T10:09:49.453Z,21824.00
2018-06-16T10:10:49.481Z,21760.00
2018-06-16T10:11:49.508Z,21696.00
2018-06-16T10:12:49.532Z,21504.00
2018-06-16T10:13:49.565Z,21184.00
2018-06-16T10:14:49.586Z,20864.00
2018-06-16T10:15:49.616Z,20448.00
2018-06-16T10:16:49.638Z,20512.00
2018-06-16T10:17:49.670Z,21024.00
2018-06-16T10:18:49.688Z,21504.00
2018-06-16T10:19:49.714Z,21984.00
2018-06-16T10:20:49.746Z,22304.00
2018-06-16T10:21:49.776Z,22464.00
2018-06-16T10:22:49.793Z,22432.00
2018-06-16T10:23:49.826Z,22560.00
2018-06-16T10:24:49.849Z,22816.00
2018-06-16T10:25:49.872Z,23072.00
2018-06-16T10:26:49.902Z,23392.00
2018-06-16T10:27:49.933Z,23648.00
2018-06-16T10:28:49.951Z,23296.00
2018-06-16T10:29:49.985Z,23232.00
2018-06-16T10:30:50.010Z,23328.00
2018-06-16T10:31:50.030Z,23424.00
2018-06-16T10:32:50.066Z,24096.00
2018-06-16T10:33:50.083Z,23904.00
2018-06-16T10:34:50.110Z,23648.00
2018-06-16T10:35:50.143Z,23648.00
2018-06-16T10:36:50.161Z,23296.00
2018-06-16T10:37:50.194Z,23040.00
2018-06-16T10:38:50.219Z,23200.00
2018-06-16T10:39:50.246Z,23136.00
2018-06-16T10:40:50.268Z,22976.00
2018-06-16T10:41:50.302Z,22848.00
2018-06-16T10:42:50.328Z,22784.00
2018-06-16T10:43:50.350Z,22848.00
2018-06-16T10:44:50.375Z,22880.00
2018-06-16T10:45:50.406Z,22752.00
2018-06-16T10:46:50.429Z,22560.00
2018-06-16T10:47:50.454Z,22432.00
2018-06-16T10:48:50.483Z,22464.00
2018-06-16T10:49:50.518Z,22528.00
2018-06-16T10:50:50.538Z,22048.00
2018-06-16T10:51:50.572Z,21472.00
2018-06-16T10:52:50.589Z,20640.00
2018-06-16T10:53:50.619Z,19712.00
2018-06-16T10:54:50.647Z,19168.00
2018-06-16T10:55:50.668Z,18624.00
2018-06-16T10:56:50.695Z,18304.00
2018-06-16T10:57:50.734Z,18176.00
2018-06-16T10:58:50.751Z,18048.00
2018-06-16T10:59:50.777Z,18336.00
2018-06-16T11:00:50.799Z,18560.00
2018-06-16T11:01:50.835Z,18464.00
2018-06-16T11:02:50.861Z,18496.00
2018-06-16T11:03:50.884Z,18720.00
2018-06-16T11:04:50.912Z,18688.00
2018-06-16T11:05:50.943Z,18304.00
2018-06-16T11:06:50.965Z,18272.00
2018-06-16T11:07:50.997Z,18592.00
2018-06-16T11:08:51.021Z,18560.00
2018-06-16T11:09:51.045Z,18368.00
2018-06-16T11:10:51.074Z,18240.00
2018-06-16T11:11:51.093Z,18112.00
2018-06-16T11:12:51.123Z,18208.00
2018-06-16T11:13:51.144Z,18464.00
2018-06-16T11:14:51.183Z,18880.00
2018-06-16T11:15:51.229Z,19168.00
2018-06-16T11:16:51.230Z,19200.00
2018-06-16T11:17:51.262Z,19136.00
2018-06-16T11:18:51.274Z,18688.00
2018-06-16T11:19:51.319Z,18208.00
2018-06-16T11:20:51.328Z,17504.00
2018-06-16T11:21:51.359Z,17280.00
2018-06-16T11:22:51.385Z,17248.00
2018-06-16T11:23:51.405Z,17376.00
2018-06-16T11:24:51.438Z,17536.00
2018-06-16T11:25:51.460Z,17856.00
2018-06-16T11:26:51.493Z,18208.00
2018-06-16T11:27:51.520Z,18560.00
2018-06-16T11:28:51.543Z,19040.00
2018-06-16T11:29:51.565Z,19264.00
2018-06-16T11:30:51.594Z,19360.00
2018-06-16T11:31:51.614Z,19456.00
2018-06-16T11:32:51.660Z,19232.00
2018-06-16T11:33:51.666Z,19328.00
2018-06-16T11:34:51.698Z,19904.00
2018-06-16T11:35:51.723Z,20160.00
2018-06-16T11:36:51.749Z,20448.00
2018-06-16T11:37:51.774Z,20992.00
2018-06-16T11:38:51.820Z,21760.00
2018-06-16T11:39:51.828Z,22016.00
2018-06-16T11:40:51.892Z,22080.00
2018-06-16T11:41:51.893Z,22368.00
2018-06-16T11:42:51.902Z,22720.00
2018-06-16T11:43:51.940Z,23008.00
2018-06-16T11:44:51.954Z,23264.00
2018-06-16T11:45:51.988Z,23104.00
2018-06-16T11:46:52.036Z,22720.00
2018-06-16T11:47:52.055Z,22496.00
2018-06-16T11:48:52.079Z,22528.00
2018-06-16T11:49:52.092Z,22400.00
2018-06-16T11:50:52.119Z,22368.00
2018-06-16T11:51:52.153Z,22304.00
2018-06-16T11:52:52.173Z,22272.00
2018-06-16T11:53:52.197Z,22240.00
2018-06-16T11:54:52.225Z,22208.00
2018-06-16T11:55:52.256Z,22304.00
2018-06-16T11:56:52.282Z,22016.00
2018-06-16T11:57:52.310Z,22016.00
2018-06-16T11:58:52.328Z,22080.00
2018-06-16T11:59:52.357Z,22048.00
2018-06-16T12:00:52.393Z,21984.00
2018-06-16T12:01:52.422Z,21952.00
2018-06-16T12:02:52.453Z,21856.00
2018-06-16T12:03:52.473Z,21760.00
2018-06-16T12:04:52.493Z,21664.00
2018-06-16T12:05:52.522Z,21632.00
2018-06-16T12:06:52.542Z,21408.00
2018-06-16T12:07:52.575Z,21504.00
2018-06-16T12:08:52.634Z,21408.00
2018-06-16T12:09:52.628Z,21312.00